BAW18B TXKF-EGLL
Flight info
| Callsign | BAW18B |
|---|---|
| Flight time | 6h 9m |
| Altitude | 39000 |
| Route | BORNN1 BALOO DCT 38N060W 43N055W DCT BOBTU DCT RAFIN DCT 45N050W 47N040W 49N030W 51N020W DCT DINIM DCT ELSOX/N0478F410 DCT EVRIN DCT JETZI DCT AMFUL DCT ORZEB/N0375F230 P2 SIRIC |
| Aircraft | B772/H-SDE1E3FGHIJ3J5J6M1M2P2RWXYZ/LB1D1 |
Departure
| Time | 2026-05-04 14:29 |
|---|---|
| Airport | L.F. Wade International Airport (TXKF) |
Arrival
| Time | 2026-05-04 20:38 |
|---|---|
| Airport | London Heathrow Airport (EGLL) |
| Time | Latitude | Longitude | Altitude | Speed | Heading |
|---|---|---|---|---|---|
| 2026-05-04 14:25 | 32.36330 | -64.70220 | 27 ft | 0 kts | 158° |
| 2026-05-04 14:25 | 32.36290 | -64.70202 | 29 ft | 9 kts | 160° |
| 2026-05-04 14:25 | 32.36267 | -64.70157 | 27 ft | 8 kts | 79° |
| 2026-05-04 14:26 | 32.36297 | -64.70069 | 29 ft | 12 kts | 67° |
| 2026-05-04 14:26 | 32.36331 | -64.69975 | 29 ft | 12 kts | 66° |
| 2026-05-04 14:26 | 32.36365 | -64.69882 | 29 ft | 12 kts | 66° |
| 2026-05-04 14:26 | 32.36400 | -64.69789 | 29 ft | 12 kts | 65° |
| 2026-05-04 14:27 | 32.36432 | -64.69694 | 28 ft | 12 kts | 70° |
| 2026-05-04 14:27 | 32.36462 | -64.69598 | 29 ft | 12 kts | 69° |
| 2026-05-04 14:27 | 32.36496 | -64.69504 | 30 ft | 12 kts | 65° |
| 2026-05-04 14:27 | 32.36540 | -64.69418 | 30 ft | 12 kts | 37° |
| 2026-05-04 14:28 | 32.36622 | -64.69395 | 31 ft | 10 kts | 10° |
| 2026-05-04 14:28 | 32.36657 | -64.69354 | 31 ft | 7 kts | 91° |
| 2026-05-04 14:28 | 32.36620 | -64.69129 | 30 ft | 65 kts | 101° |
| 2026-05-04 14:28 | 32.36477 | -64.68292 | 33 ft | 140 kts | 101° |
| 2026-05-04 14:29 | 32.35995 | -64.65571 | 1257 ft | 179 kts | 98° |
| 2026-05-04 14:29 | 32.35442 | -64.62368 | 2047 ft | 224 kts | 98° |
| 2026-05-04 14:30 | 32.35122 | -64.60468 | 2407 ft | 244 kts | 98° |
| 2026-05-04 14:30 | 32.34794 | -64.58471 | 3095 ft | 247 kts | 96° |
| 2026-05-04 14:30 | 32.36030 | -64.54847 | 4161 ft | 258 kts | 43° |
| 2026-05-04 14:31 | 32.37373 | -64.53327 | 4578 ft | 275 kts | 43° |
| 2026-05-04 14:31 | 32.40213 | -64.50105 | 5851 ft | 290 kts | 42° |
| 2026-05-04 14:32 | 32.43202 | -64.46716 | 7082 ft | 304 kts | 42° |
| 2026-05-04 14:32 | 32.44733 | -64.44974 | 7739 ft | 307 kts | 42° |
| 2026-05-04 14:32 | 32.46281 | -64.43212 | 8389 ft | 311 kts | 42° |
| 2026-05-04 14:32 | 32.47848 | -64.41424 | 9006 ft | 315 kts | 42° |
| 2026-05-04 14:33 | 32.49439 | -64.39607 | 9611 ft | 320 kts | 42° |
| 2026-05-04 14:33 | 32.51050 | -64.37765 | 10204 ft | 323 kts | 42° |
| 2026-05-04 14:33 | 32.52694 | -64.35885 | 10523 ft | 338 kts | 42° |
| 2026-05-04 14:33 | 32.54436 | -64.33893 | 10674 ft | 358 kts | 42° |
| 2026-05-04 14:34 | 32.56274 | -64.31789 | 10972 ft | 374 kts | 41° |
| 2026-05-04 14:34 | 32.58170 | -64.29615 | 11558 ft | 383 kts | 41° |
| 2026-05-04 14:34 | 32.60100 | -64.27399 | 12348 ft | 388 kts | 41° |
| 2026-05-04 14:34 | 32.62042 | -64.25164 | 13298 ft | 390 kts | 40° |
| 2026-05-04 14:35 | 32.63998 | -64.22914 | 14215 ft | 393 kts | 40° |
| 2026-05-04 14:35 | 32.65968 | -64.20647 | 15039 ft | 394 kts | 40° |
| 2026-05-04 14:35 | 32.67938 | -64.18379 | 15918 ft | 396 kts | 40° |
| 2026-05-04 14:35 | 32.69928 | -64.16087 | 16633 ft | 402 kts | 41° |
| 2026-05-04 14:36 | 32.71960 | -64.13748 | 17231 ft | 412 kts | 39° |
| 2026-05-04 14:36 | 32.74040 | -64.11354 | 17833 ft | 421 kts | 39° |
| 2026-05-04 14:36 | 32.76155 | -64.08914 | 18500 ft | 427 kts | 39° |
| 2026-05-04 14:36 | 32.78297 | -64.06440 | 19115 ft | 432 kts | 39° |
| 2026-05-04 14:37 | 32.80457 | -64.03942 | 19737 ft | 434 kts | 41° |
| 2026-05-04 14:37 | 32.82625 | -64.01431 | 20421 ft | 436 kts | 41° |
| 2026-05-04 14:37 | 32.84807 | -63.98903 | 21028 ft | 440 kts | 42° |
| 2026-05-04 14:37 | 32.87011 | -63.96349 | 21567 ft | 445 kts | 42° |
| 2026-05-04 14:38 | 32.89244 | -63.93763 | 22114 ft | 450 kts | 43° |
| 2026-05-04 14:38 | 32.91496 | -63.91151 | 22654 ft | 455 kts | 43° |
| 2026-05-04 14:38 | 32.93775 | -63.88507 | 23205 ft | 459 kts | 43° |
| 2026-05-04 14:38 | 32.96071 | -63.85841 | 23762 ft | 463 kts | 43° |
| 2026-05-04 14:39 | 32.98386 | -63.83150 | 24252 ft | 467 kts | 43° |
| 2026-05-04 14:39 | 33.00685 | -63.80474 | 24728 ft | 470 kts | 43° |
| 2026-05-04 14:39 | 33.03031 | -63.77741 | 25187 ft | 474 kts | 43° |
| 2026-05-04 14:40 | 33.07787 | -63.72194 | 26085 ft | 482 kts | 43° |
| 2026-05-04 14:40 | 33.10195 | -63.69383 | 26548 ft | 486 kts | 43° |
| 2026-05-04 14:40 | 33.12620 | -63.66549 | 26996 ft | 490 kts | 43° |
| 2026-05-04 14:40 | 33.15065 | -63.63689 | 27477 ft | 494 kts | 43° |
| 2026-05-04 14:41 | 33.17530 | -63.60805 | 27907 ft | 498 kts | 43° |
| 2026-05-04 14:41 | 33.20019 | -63.57889 | 28346 ft | 503 kts | 43° |
| 2026-05-04 14:41 | 33.25049 | -63.51989 | 29250 ft | 511 kts | 43° |
| 2026-05-04 14:42 | 33.30158 | -63.45987 | 30210 ft | 518 kts | 43° |
| 2026-05-04 14:42 | 33.32734 | -63.42955 | 30548 ft | 523 kts | 43° |
| 2026-05-04 14:42 | 33.35343 | -63.39884 | 30846 ft | 528 kts | 43° |
| 2026-05-04 14:43 | 33.37862 | -63.36915 | 31147 ft | 533 kts | 43° |
| 2026-05-04 14:43 | 33.40530 | -63.33769 | 31495 ft | 537 kts | 43° |
| 2026-05-04 14:43 | 33.43198 | -63.30619 | 31842 ft | 541 kts | 43° |
| 2026-05-04 14:43 | 33.45884 | -63.27444 | 32158 ft | 545 kts | 43° |
| 2026-05-04 14:44 | 33.48595 | -63.24237 | 32440 ft | 551 kts | 42° |
| 2026-05-04 14:44 | 33.51337 | -63.20991 | 32681 ft | 556 kts | 42° |
| 2026-05-04 14:44 | 33.54095 | -63.17724 | 32993 ft | 560 kts | 42° |
| 2026-05-04 14:44 | 33.56871 | -63.14432 | 33315 ft | 563 kts | 42° |
| 2026-05-04 14:45 | 33.59663 | -63.11117 | 33619 ft | 566 kts | 42° |
| 2026-05-04 14:45 | 33.62459 | -63.07793 | 33967 ft | 567 kts | 42° |
| 2026-05-04 14:45 | 33.65272 | -63.04446 | 34278 ft | 571 kts | 41° |
| 2026-05-04 14:45 | 33.68099 | -63.01078 | 34451 ft | 576 kts | 41° |
| 2026-05-04 14:46 | 33.70952 | -62.97679 | 34645 ft | 579 kts | 41° |
| 2026-05-04 14:46 | 33.73814 | -62.94264 | 34912 ft | 580 kts | 41° |
| 2026-05-04 14:46 | 33.76671 | -62.90850 | 35275 ft | 579 kts | 41° |
| 2026-05-04 14:46 | 33.79521 | -62.87440 | 35653 ft | 578 kts | 41° |
| 2026-05-04 14:47 | 33.82370 | -62.84029 | 36004 ft | 577 kts | 41° |
| 2026-05-04 14:47 | 33.85209 | -62.80626 | 36339 ft | 577 kts | 40° |
| 2026-05-04 14:47 | 33.88057 | -62.77212 | 36610 ft | 578 kts | 40° |
| 2026-05-04 14:47 | 33.90905 | -62.73794 | 36909 ft | 578 kts | 40° |
| 2026-05-04 14:48 | 33.93747 | -62.70380 | 37223 ft | 578 kts | 40° |
| 2026-05-04 14:48 | 33.96592 | -62.66958 | 37527 ft | 577 kts | 40° |
| 2026-05-04 14:48 | 33.99433 | -62.63538 | 37823 ft | 577 kts | 40° |
| 2026-05-04 14:48 | 34.02271 | -62.60118 | 38142 ft | 577 kts | 39° |
| 2026-05-04 14:49 | 34.05107 | -62.56695 | 38417 ft | 577 kts | 39° |
| 2026-05-04 14:49 | 34.07940 | -62.53274 | 38710 ft | 576 kts | 39° |
| 2026-05-04 14:49 | 34.10772 | -62.49851 | 38976 ft | 574 kts | 39° |
| 2026-05-04 14:49 | 34.13552 | -62.46485 | 39132 ft | 576 kts | 39° |
| 2026-05-04 14:50 | 34.19241 | -62.39597 | 39229 ft | 583 kts | 39° |
| 2026-05-04 14:50 | 34.24965 | -62.32644 | 39179 ft | 583 kts | 39° |
| 2026-05-04 14:51 | 34.30669 | -62.25698 | 39178 ft | 580 kts | 39° |
| 2026-05-04 14:51 | 34.36341 | -62.18782 | 39166 ft | 577 kts | 40° |
| 2026-05-04 14:52 | 34.42243 | -62.12375 | 39179 ft | 556 kts | 21° |
| 2026-05-04 14:52 | 34.45639 | -62.10326 | 39198 ft | 541 kts | 14° |
| 2026-05-04 14:52 | 34.49077 | -62.08486 | 39182 ft | 540 kts | 13° |
| 2026-05-04 14:53 | 34.55968 | -62.04846 | 39185 ft | 542 kts | 14° |
| 2026-05-04 14:53 | 34.62860 | -62.01057 | 39188 ft | 545 kts | 14° |
| 2026-05-04 14:54 | 34.69749 | -61.97144 | 39186 ft | 548 kts | 15° |
| 2026-05-04 14:54 | 34.76651 | -61.93186 | 39234 ft | 549 kts | 15° |
| 2026-05-04 14:55 | 34.83526 | -61.89246 | 39180 ft | 550 kts | 15° |
| 2026-05-04 14:55 | 34.90454 | -61.85278 | 39183 ft | 550 kts | 15° |
| 2026-05-04 14:56 | 34.97390 | -61.81302 | 39181 ft | 550 kts | 15° |
| 2026-05-04 14:56 | 35.04304 | -61.77331 | 39182 ft | 549 kts | 15° |
| 2026-05-04 14:57 | 35.11214 | -61.73355 | 39181 ft | 549 kts | 15° |
| 2026-05-04 14:57 | 35.18113 | -61.69376 | 39212 ft | 548 kts | 14° |
| 2026-05-04 14:58 | 35.25013 | -61.65391 | 39187 ft | 548 kts | 14° |
| 2026-05-04 14:58 | 35.31901 | -61.61404 | 39181 ft | 547 kts | 14° |
| 2026-05-04 14:59 | 35.38787 | -61.57411 | 39194 ft | 547 kts | 14° |
| 2026-05-04 15:00 | 35.49056 | -61.51442 | 39179 ft | 547 kts | 14° |
| 2026-05-04 15:00 | 35.55922 | -61.47442 | 39230 ft | 546 kts | 14° |
| 2026-05-04 15:01 | 35.66238 | -61.41420 | 39187 ft | 547 kts | 14° |
| 2026-05-04 15:01 | 35.73118 | -61.37392 | 39185 ft | 548 kts | 14° |
| 2026-05-04 15:02 | 35.80004 | -61.33354 | 39143 ft | 549 kts | 14° |
| 2026-05-04 15:02 | 35.86890 | -61.29305 | 39174 ft | 548 kts | 14° |
| 2026-05-04 15:03 | 35.92606 | -61.25939 | 39176 ft | 548 kts | 14° |
| 2026-05-04 15:03 | 36.00652 | -61.21196 | 39178 ft | 549 kts | 14° |
| 2026-05-04 15:04 | 36.07547 | -61.17120 | 39175 ft | 549 kts | 14° |
| 2026-05-04 15:04 | 36.14440 | -61.13038 | 39194 ft | 550 kts | 14° |
| 2026-05-04 15:05 | 36.21349 | -61.08939 | 39172 ft | 551 kts | 14° |
| 2026-05-04 15:05 | 36.28263 | -61.04828 | 39169 ft | 551 kts | 14° |
| 2026-05-04 15:06 | 36.35128 | -61.00736 | 39177 ft | 551 kts | 14° |
| 2026-05-04 15:07 | 36.45494 | -60.94545 | 39163 ft | 551 kts | 14° |
| 2026-05-04 15:07 | 36.52410 | -60.90404 | 39188 ft | 551 kts | 13° |
| 2026-05-04 15:08 | 36.59330 | -60.86254 | 39165 ft | 552 kts | 13° |
| 2026-05-04 15:08 | 36.66252 | -60.82092 | 39165 ft | 552 kts | 13° |
| 2026-05-04 15:09 | 36.73177 | -60.77923 | 39166 ft | 553 kts | 13° |
| 2026-05-04 15:09 | 36.80110 | -60.73740 | 39141 ft | 553 kts | 13° |
| 2026-05-04 15:10 | 36.90458 | -60.67477 | 39156 ft | 553 kts | 13° |
| 2026-05-04 15:11 | 37.00841 | -60.61175 | 39154 ft | 553 kts | 13° |
| 2026-05-04 15:11 | 37.07761 | -60.56965 | 39165 ft | 553 kts | 13° |
| 2026-05-04 15:12 | 37.14688 | -60.52742 | 39151 ft | 554 kts | 13° |
| 2026-05-04 15:12 | 37.20492 | -60.49196 | 39152 ft | 554 kts | 13° |
| 2026-05-04 15:13 | 37.27421 | -60.44955 | 39135 ft | 555 kts | 13° |
| 2026-05-04 15:13 | 37.34310 | -60.40729 | 39145 ft | 554 kts | 13° |
| 2026-05-04 15:14 | 37.41236 | -60.36473 | 39192 ft | 554 kts | 13° |
| 2026-05-04 15:14 | 37.48174 | -60.32203 | 39157 ft | 556 kts | 13° |
| 2026-05-04 15:15 | 37.55118 | -60.27918 | 39149 ft | 556 kts | 13° |
| 2026-05-04 15:15 | 37.62063 | -60.23623 | 39161 ft | 557 kts | 13° |
| 2026-05-04 15:16 | 37.72502 | -60.17150 | 39124 ft | 558 kts | 13° |
| 2026-05-04 15:17 | 37.82935 | -60.10660 | 39149 ft | 557 kts | 13° |
| 2026-05-04 15:17 | 37.93373 | -60.04147 | 39138 ft | 557 kts | 13° |
| 2026-05-04 15:18 | 38.00305 | -59.99657 | 39139 ft | 566 kts | 19° |
| 2026-05-04 15:19 | 38.10152 | -59.90944 | 39146 ft | 579 kts | 26° |
| 2026-05-04 15:19 | 38.19898 | -59.81830 | 39133 ft | 580 kts | 26° |
| 2026-05-04 15:20 | 38.26430 | -59.75811 | 39129 ft | 579 kts | 25° |
| 2026-05-04 15:20 | 38.32931 | -59.69847 | 39128 ft | 581 kts | 26° |
| 2026-05-04 15:21 | 38.39484 | -59.63820 | 39125 ft | 581 kts | 26° |
| 2026-05-04 15:22 | 38.49298 | -59.54751 | 39117 ft | 581 kts | 26° |
| 2026-05-04 15:22 | 38.59097 | -59.45658 | 39117 ft | 580 kts | 26° |
| 2026-05-04 15:23 | 38.65619 | -59.39591 | 39111 ft | 579 kts | 26° |
| 2026-05-04 15:23 | 38.72134 | -59.33518 | 39113 ft | 579 kts | 26° |
| 2026-05-04 15:24 | 38.85140 | -59.21351 | 39108 ft | 578 kts | 26° |
| 2026-05-04 15:25 | 38.91631 | -59.15257 | 39149 ft | 578 kts | 27° |
| 2026-05-04 15:26 | 39.01361 | -59.06097 | 39108 ft | 578 kts | 27° |
| 2026-05-04 15:26 | 39.11064 | -58.96928 | 39103 ft | 576 kts | 27° |
| 2026-05-04 15:27 | 39.20697 | -58.87795 | 39096 ft | 575 kts | 27° |
| 2026-05-04 15:28 | 39.30355 | -58.78609 | 39095 ft | 575 kts | 27° |
| 2026-05-04 15:29 | 39.39989 | -58.69410 | 39124 ft | 574 kts | 28° |
| 2026-05-04 15:30 | 39.62365 | -58.47919 | 39073 ft | 570 kts | 28° |
| 2026-05-04 15:31 | 39.71883 | -58.38726 | 39080 ft | 568 kts | 28° |
| 2026-05-04 15:32 | 39.87664 | -58.23425 | 39080 ft | 567 kts | 29° |
| 2026-05-04 15:34 | 40.03413 | -58.08051 | 39074 ft | 567 kts | 29° |
| 2026-05-04 15:34 | 40.12839 | -57.98798 | 39066 ft | 567 kts | 30° |
| 2026-05-04 15:35 | 40.22285 | -57.89488 | 39037 ft | 566 kts | 29° |
| 2026-05-04 15:36 | 40.31726 | -57.80165 | 39065 ft | 567 kts | 30° |
| 2026-05-04 15:36 | 40.38027 | -57.73924 | 39060 ft | 568 kts | 30° |
| 2026-05-04 15:37 | 40.44330 | -57.67664 | 39059 ft | 568 kts | 30° |
| 2026-05-04 15:37 | 40.50592 | -57.61428 | 39049 ft | 569 kts | 30° |
| 2026-05-04 15:38 | 40.56897 | -57.55135 | 39049 ft | 569 kts | 31° |
| 2026-05-04 15:38 | 40.63194 | -57.48836 | 39045 ft | 569 kts | 31° |
| 2026-05-04 15:39 | 40.69496 | -57.42516 | 39065 ft | 569 kts | 31° |
| 2026-05-04 15:40 | 40.78953 | -57.33001 | 39035 ft | 570 kts | 31° |
| 2026-05-04 15:40 | 40.85244 | -57.26652 | 39047 ft | 569 kts | 31° |
| 2026-05-04 15:41 | 40.91531 | -57.20293 | 39030 ft | 569 kts | 32° |
| 2026-05-04 15:41 | 40.97817 | -57.13918 | 39028 ft | 569 kts | 32° |
| 2026-05-04 15:42 | 41.04094 | -57.07538 | 39022 ft | 568 kts | 32° |
| 2026-05-04 15:42 | 41.10364 | -57.01149 | 39018 ft | 568 kts | 32° |
| 2026-05-04 15:43 | 41.16627 | -56.94750 | 39022 ft | 568 kts | 32° |
| 2026-05-04 15:43 | 41.22842 | -56.88386 | 39013 ft | 568 kts | 32° |
| 2026-05-04 15:44 | 41.29094 | -56.81967 | 39027 ft | 568 kts | 32° |
| 2026-05-04 15:44 | 41.35337 | -56.75542 | 39016 ft | 567 kts | 32° |
| 2026-05-04 15:45 | 41.41578 | -56.69102 | 39007 ft | 567 kts | 32° |
| 2026-05-04 15:45 | 41.47810 | -56.62656 | 39011 ft | 567 kts | 32° |
| 2026-05-04 15:46 | 41.54033 | -56.56204 | 39005 ft | 566 kts | 32° |
| 2026-05-04 15:46 | 41.60238 | -56.49753 | 38995 ft | 565 kts | 32° |
| 2026-05-04 15:47 | 41.66439 | -56.43290 | 38997 ft | 565 kts | 32° |
| 2026-05-04 15:47 | 41.72630 | -56.36823 | 38995 ft | 564 kts | 32° |
| 2026-05-04 15:48 | 41.78818 | -56.30342 | 38997 ft | 564 kts | 32° |
| 2026-05-04 15:48 | 41.88091 | -56.20600 | 38988 ft | 564 kts | 33° |
| 2026-05-04 15:49 | 41.94223 | -56.14137 | 38985 ft | 564 kts | 33° |
| 2026-05-04 15:49 | 42.00388 | -56.07622 | 38986 ft | 563 kts | 33° |
| 2026-05-04 15:50 | 42.06535 | -56.01109 | 38982 ft | 562 kts | 33° |
| 2026-05-04 15:50 | 42.12673 | -55.94590 | 38969 ft | 561 kts | 33° |
| 2026-05-04 15:51 | 42.18789 | -55.88078 | 38968 ft | 559 kts | 33° |
| 2026-05-04 15:51 | 42.24889 | -55.81569 | 38962 ft | 559 kts | 34° |
| 2026-05-04 15:52 | 42.30978 | -55.75051 | 38955 ft | 558 kts | 34° |
| 2026-05-04 15:52 | 42.37055 | -55.68532 | 38962 ft | 558 kts | 34° |
| 2026-05-04 15:53 | 42.43131 | -55.61997 | 38950 ft | 558 kts | 34° |
| 2026-05-04 15:53 | 42.49204 | -55.55448 | 38945 ft | 558 kts | 34° |
| 2026-05-04 15:54 | 42.55284 | -55.48876 | 38947 ft | 559 kts | 34° |
| 2026-05-04 15:54 | 42.61360 | -55.42289 | 38932 ft | 559 kts | 34° |
| 2026-05-04 15:55 | 42.67396 | -55.35730 | 38936 ft | 559 kts | 35° |
| 2026-05-04 15:55 | 42.73476 | -55.29105 | 38924 ft | 560 kts | 35° |
| 2026-05-04 15:56 | 42.79548 | -55.22473 | 38922 ft | 560 kts | 35° |
| 2026-05-04 15:56 | 42.85619 | -55.15823 | 38908 ft | 560 kts | 35° |
| 2026-05-04 15:57 | 42.91684 | -55.09162 | 38909 ft | 560 kts | 35° |
| 2026-05-04 15:57 | 42.97698 | -55.02407 | 38912 ft | 561 kts | 40° |
| 2026-05-04 15:58 | 43.03034 | -54.94598 | 38898 ft | 565 kts | 52° |
| 2026-05-04 15:58 | 43.07630 | -54.85878 | 38895 ft | 565 kts | 54° |
| 2026-05-04 15:59 | 43.12140 | -54.77146 | 38899 ft | 565 kts | 54° |
| 2026-05-04 15:59 | 43.16738 | -54.68340 | 38902 ft | 565 kts | 53° |
| 2026-05-04 16:00 | 43.21305 | -54.59654 | 38903 ft | 565 kts | 53° |
| 2026-05-04 16:00 | 43.25908 | -54.50892 | 38900 ft | 565 kts | 53° |
| 2026-05-04 16:01 | 43.29751 | -54.43545 | 38901 ft | 565 kts | 53° |
| 2026-05-04 16:01 | 43.34302 | -54.34814 | 38894 ft | 566 kts | 54° |
| 2026-05-04 16:02 | 43.38877 | -54.26011 | 38895 ft | 566 kts | 54° |
| 2026-05-04 16:03 | 43.45724 | -54.12785 | 38883 ft | 565 kts | 54° |
| 2026-05-04 16:03 | 43.50274 | -54.03963 | 38890 ft | 565 kts | 54° |
| 2026-05-04 16:04 | 43.54818 | -53.95129 | 38885 ft | 564 kts | 54° |
| 2026-05-04 16:04 | 43.61545 | -53.81999 | 38879 ft | 564 kts | 54° |
| 2026-05-04 16:05 | 43.66048 | -53.73178 | 38880 ft | 563 kts | 55° |
| 2026-05-04 16:06 | 43.72795 | -53.59911 | 38873 ft | 562 kts | 55° |
| 2026-05-04 16:07 | 43.81764 | -53.42180 | 38866 ft | 562 kts | 55° |
| 2026-05-04 16:08 | 43.90704 | -53.24398 | 38870 ft | 562 kts | 56° |
| 2026-05-04 16:09 | 44.01846 | -53.02083 | 38866 ft | 563 kts | 56° |
| 2026-05-04 16:10 | 44.10792 | -52.84232 | 38861 ft | 562 kts | 52° |
| 2026-05-04 16:11 | 44.18930 | -52.72516 | 38860 ft | 561 kts | 41° |
| 2026-05-04 16:11 | 44.21806 | -52.68846 | 38857 ft | 561 kts | 41° |
| 2026-05-04 16:12 | 44.38932 | -52.46500 | 38847 ft | 562 kts | 43° |
| 2026-05-04 16:13 | 44.50278 | -52.31465 | 38841 ft | 562 kts | 43° |
| 2026-05-04 16:14 | 44.61572 | -52.16431 | 38841 ft | 562 kts | 43° |
| 2026-05-04 16:16 | 44.75697 | -51.97504 | 38828 ft | 561 kts | 43° |
| 2026-05-04 16:17 | 44.88054 | -51.76760 | 38838 ft | 551 kts | 73° |
| 2026-05-04 16:18 | 44.89826 | -51.61105 | 38829 ft | 538 kts | 91° |
| 2026-05-04 16:18 | 44.90129 | -51.55843 | 38833 ft | 539 kts | 90° |
| 2026-05-04 16:19 | 44.91884 | -51.29412 | 38827 ft | 543 kts | 90° |
| 2026-05-04 16:20 | 44.93674 | -51.02966 | 38855 ft | 543 kts | 90° |
| 2026-05-04 16:22 | 44.95390 | -50.76491 | 38822 ft | 541 kts | 91° |
| 2026-05-04 16:23 | 44.97359 | -50.44880 | 38874 ft | 537 kts | 91° |
| 2026-05-04 16:25 | 44.99222 | -50.13565 | 38875 ft | 536 kts | 92° |
| 2026-05-04 16:26 | 45.01690 | -49.92671 | 38883 ft | 550 kts | 75° |
| 2026-05-04 16:26 | 45.05601 | -49.77395 | 38889 ft | 552 kts | 74° |
| 2026-05-04 16:28 | 45.12031 | -49.51792 | 38897 ft | 552 kts | 75° |
| 2026-05-04 16:29 | 45.20838 | -49.15791 | 38890 ft | 552 kts | 75° |
| 2026-05-04 16:31 | 45.27037 | -48.90138 | 38877 ft | 550 kts | 76° |
| 2026-05-04 16:32 | 45.34362 | -48.59436 | 38854 ft | 544 kts | 76° |
| 2026-05-04 16:33 | 45.39159 | -48.39094 | 38901 ft | 541 kts | 76° |
| 2026-05-04 16:34 | 45.42725 | -48.23842 | 38908 ft | 541 kts | 76° |
| 2026-05-04 16:35 | 45.49817 | -47.93202 | 38905 ft | 544 kts | 76° |
| 2026-05-04 16:36 | 45.53345 | -47.77801 | 38904 ft | 545 kts | 76° |
| 2026-05-04 16:37 | 45.56834 | -47.62464 | 38906 ft | 543 kts | 76° |
| 2026-05-04 16:38 | 45.61457 | -47.41965 | 38902 ft | 540 kts | 77° |
| 2026-05-04 16:39 | 45.67141 | -47.16490 | 38912 ft | 536 kts | 77° |
| 2026-05-04 16:40 | 45.71620 | -46.96193 | 38898 ft | 534 kts | 77° |
| 2026-05-04 16:41 | 45.77143 | -46.70896 | 38916 ft | 530 kts | 77° |
| 2026-05-04 16:43 | 45.82592 | -46.45628 | 38926 ft | 533 kts | 77° |
| 2026-05-04 16:43 | 45.85833 | -46.30457 | 38920 ft | 532 kts | 78° |
| 2026-05-04 16:45 | 45.92265 | -46.00013 | 38909 ft | 531 kts | 78° |
| 2026-05-04 16:46 | 45.97547 | -45.74658 | 38904 ft | 528 kts | 78° |
| 2026-05-04 16:47 | 46.01696 | -45.54522 | 38921 ft | 526 kts | 78° |
| 2026-05-04 16:48 | 46.05814 | -45.34329 | 38918 ft | 525 kts | 78° |
| 2026-05-04 16:49 | 46.09888 | -45.14149 | 38932 ft | 524 kts | 78° |
| 2026-05-04 16:50 | 46.13584 | -44.95662 | 38910 ft | 523 kts | 78° |
| 2026-05-04 16:51 | 46.16578 | -44.80557 | 38946 ft | 522 kts | 78° |
| 2026-05-04 16:52 | 46.20541 | -44.60381 | 38961 ft | 522 kts | 78° |
| 2026-05-04 16:53 | 46.23490 | -44.45229 | 38969 ft | 523 kts | 78° |
| 2026-05-04 16:54 | 46.27394 | -44.24986 | 38975 ft | 523 kts | 79° |
| 2026-05-04 16:55 | 46.33174 | -43.94625 | 38982 ft | 520 kts | 78° |
| 2026-05-04 16:56 | 46.37878 | -43.69533 | 39019 ft | 516 kts | 78° |
| 2026-05-04 16:57 | 46.40669 | -43.54491 | 39024 ft | 515 kts | 78° |
| 2026-05-04 16:58 | 46.44348 | -43.34467 | 39034 ft | 514 kts | 78° |
| 2026-05-04 17:00 | 46.49811 | -43.04333 | 39051 ft | 518 kts | 77° |
| 2026-05-04 17:01 | 46.54348 | -42.78920 | 39089 ft | 523 kts | 77° |
| 2026-05-04 17:02 | 46.57971 | -42.58374 | 39092 ft | 526 kts | 77° |
| 2026-05-04 17:03 | 46.60666 | -42.42928 | 39103 ft | 524 kts | 76° |
| 2026-05-04 17:03 | 46.63332 | -42.27514 | 39107 ft | 522 kts | 76° |
| 2026-05-04 17:04 | 46.66823 | -42.07122 | 39096 ft | 519 kts | 76° |
| 2026-05-04 17:05 | 46.70275 | -41.86728 | 39138 ft | 518 kts | 76° |
| 2026-05-04 17:06 | 46.72838 | -41.71428 | 39144 ft | 518 kts | 76° |
| 2026-05-04 17:07 | 46.75093 | -41.57846 | 39139 ft | 518 kts | 76° |
| 2026-05-04 17:07 | 46.77064 | -41.45895 | 39156 ft | 518 kts | 76° |
| 2026-05-04 17:08 | 46.79574 | -41.30544 | 39165 ft | 519 kts | 76° |
| 2026-05-04 17:09 | 46.81237 | -41.20291 | 39166 ft | 519 kts | 76° |
| 2026-05-04 17:09 | 46.82893 | -41.10025 | 39159 ft | 519 kts | 76° |
| 2026-05-04 17:10 | 46.86977 | -40.84425 | 39189 ft | 519 kts | 76° |
| 2026-05-04 17:11 | 46.88601 | -40.74136 | 39194 ft | 519 kts | 76° |
| 2026-05-04 17:12 | 46.91017 | -40.58710 | 39199 ft | 519 kts | 76° |
| 2026-05-04 17:13 | 46.94999 | -40.32950 | 39215 ft | 519 kts | 76° |
| 2026-05-04 17:14 | 46.98138 | -40.12349 | 39201 ft | 518 kts | 76° |
| 2026-05-04 17:15 | 47.00654 | -39.97041 | 39222 ft | 516 kts | 69° |
| 2026-05-04 17:16 | 47.05660 | -39.77340 | 39230 ft | 516 kts | 67° |
| 2026-05-04 17:17 | 47.10623 | -39.57573 | 39243 ft | 517 kts | 67° |
| 2026-05-04 17:18 | 47.15515 | -39.37723 | 39239 ft | 517 kts | 68° |
| 2026-05-04 17:19 | 47.20375 | -39.17848 | 39251 ft | 517 kts | 67° |
| 2026-05-04 17:20 | 47.25201 | -38.97945 | 39258 ft | 516 kts | 67° |
| 2026-05-04 17:20 | 47.28777 | -38.83073 | 39263 ft | 516 kts | 67° |
| 2026-05-04 17:21 | 47.33530 | -38.63156 | 39273 ft | 514 kts | 67° |
| 2026-05-04 17:22 | 47.35889 | -38.53204 | 39287 ft | 513 kts | 67° |
| 2026-05-04 17:23 | 47.40566 | -38.33335 | 39284 ft | 511 kts | 66° |
| 2026-05-04 17:24 | 47.44039 | -38.18462 | 39295 ft | 510 kts | 67° |
| 2026-05-04 17:25 | 47.48624 | -37.98674 | 39294 ft | 508 kts | 66° |
| 2026-05-04 17:26 | 47.53147 | -37.78970 | 39306 ft | 507 kts | 66° |
| 2026-05-04 17:27 | 47.58755 | -37.54288 | 39313 ft | 506 kts | 66° |
| 2026-05-04 17:28 | 47.63195 | -37.34538 | 39334 ft | 505 kts | 66° |
| 2026-05-04 17:29 | 47.69772 | -37.04935 | 39330 ft | 503 kts | 66° |
| 2026-05-04 17:31 | 47.75174 | -36.80306 | 39335 ft | 500 kts | 66° |
| 2026-05-04 17:32 | 47.80468 | -36.55879 | 39340 ft | 496 kts | 66° |
| 2026-05-04 17:33 | 47.84657 | -36.36355 | 39348 ft | 495 kts | 66° |
| 2026-05-04 17:34 | 47.88809 | -36.16814 | 39364 ft | 496 kts | 66° |
| 2026-05-04 17:35 | 47.93967 | -35.92262 | 39362 ft | 496 kts | 66° |
| 2026-05-04 17:36 | 47.96003 | -35.82490 | 39349 ft | 496 kts | 66° |
| 2026-05-04 17:36 | 47.98042 | -35.72657 | 39369 ft | 496 kts | 66° |
| 2026-05-04 17:37 | 48.00069 | -35.62829 | 39358 ft | 495 kts | 66° |
| 2026-05-04 17:37 | 48.02084 | -35.53011 | 39360 ft | 494 kts | 67° |
| 2026-05-04 17:38 | 48.04086 | -35.43212 | 39365 ft | 492 kts | 67° |
| 2026-05-04 17:38 | 48.06076 | -35.33423 | 39390 ft | 491 kts | 66° |
| 2026-05-04 17:39 | 48.08705 | -35.20416 | 39383 ft | 490 kts | 66° |
| 2026-05-04 17:39 | 48.10663 | -35.10669 | 39375 ft | 488 kts | 66° |
| 2026-05-04 17:40 | 48.12604 | -35.00958 | 39373 ft | 486 kts | 66° |
| 2026-05-04 17:40 | 48.14532 | -34.91266 | 39393 ft | 485 kts | 66° |
| 2026-05-04 17:41 | 48.16448 | -34.81594 | 39378 ft | 484 kts | 66° |
| 2026-05-04 17:41 | 48.18349 | -34.71945 | 39379 ft | 483 kts | 67° |
| 2026-05-04 17:42 | 48.20239 | -34.62305 | 39382 ft | 482 kts | 67° |
| 2026-05-04 17:42 | 48.22111 | -34.52708 | 39415 ft | 483 kts | 67° |
| 2026-05-04 17:43 | 48.23994 | -34.43010 | 39396 ft | 485 kts | 67° |
| 2026-05-04 17:43 | 48.25877 | -34.33263 | 39393 ft | 487 kts | 67° |
| 2026-05-04 17:44 | 48.27757 | -34.23473 | 39387 ft | 489 kts | 67° |
| 2026-05-04 17:44 | 48.29636 | -34.13639 | 39389 ft | 490 kts | 67° |
| 2026-05-04 17:45 | 48.31508 | -34.03786 | 39398 ft | 491 kts | 67° |
| 2026-05-04 17:45 | 48.33376 | -33.93905 | 39391 ft | 491 kts | 67° |
| 2026-05-04 17:46 | 48.35221 | -33.84094 | 39399 ft | 491 kts | 67° |
| 2026-05-04 17:46 | 48.37067 | -33.74225 | 39394 ft | 490 kts | 67° |
| 2026-05-04 17:47 | 48.38902 | -33.64368 | 39408 ft | 489 kts | 68° |
| 2026-05-04 17:47 | 48.40725 | -33.54520 | 39393 ft | 488 kts | 68° |
| 2026-05-04 17:48 | 48.42533 | -33.44700 | 39402 ft | 487 kts | 68° |
| 2026-05-04 17:48 | 48.44333 | -33.34875 | 39401 ft | 486 kts | 68° |
| 2026-05-04 17:49 | 48.46119 | -33.25075 | 39405 ft | 485 kts | 68° |
| 2026-05-04 17:49 | 48.47896 | -33.15268 | 39400 ft | 484 kts | 68° |
| 2026-05-04 17:50 | 48.49660 | -33.05478 | 39401 ft | 484 kts | 68° |
| 2026-05-04 17:50 | 48.51418 | -32.95674 | 39401 ft | 484 kts | 68° |
| 2026-05-04 17:51 | 48.53167 | -32.85869 | 39424 ft | 484 kts | 68° |
| 2026-05-04 17:51 | 48.54897 | -32.76119 | 39409 ft | 485 kts | 68° |
| 2026-05-04 17:52 | 48.56646 | -32.66198 | 39402 ft | 486 kts | 68° |
| 2026-05-04 17:52 | 48.58364 | -32.56401 | 39402 ft | 486 kts | 69° |
| 2026-05-04 17:53 | 48.60087 | -32.46517 | 39407 ft | 487 kts | 69° |
| 2026-05-04 17:53 | 48.61804 | -32.36620 | 39410 ft | 487 kts | 69° |
| 2026-05-04 17:54 | 48.63516 | -32.26698 | 39412 ft | 488 kts | 69° |
| 2026-05-04 17:54 | 48.65219 | -32.16767 | 39410 ft | 488 kts | 69° |
| 2026-05-04 17:55 | 48.66913 | -32.06826 | 39414 ft | 488 kts | 69° |
| 2026-05-04 17:55 | 48.68602 | -31.96869 | 39418 ft | 489 kts | 69° |
| 2026-05-04 17:56 | 48.70282 | -31.86902 | 39411 ft | 489 kts | 69° |
| 2026-05-04 17:56 | 48.71954 | -31.76926 | 39412 ft | 489 kts | 69° |
| 2026-05-04 17:57 | 48.73615 | -31.66955 | 39417 ft | 488 kts | 70° |
| 2026-05-04 17:57 | 48.75269 | -31.56969 | 39424 ft | 489 kts | 70° |
| 2026-05-04 17:58 | 48.76914 | -31.46975 | 39420 ft | 488 kts | 70° |
| 2026-05-04 17:58 | 48.78539 | -31.37046 | 39409 ft | 488 kts | 70° |
| 2026-05-04 17:59 | 48.80165 | -31.27052 | 39419 ft | 488 kts | 70° |
| 2026-05-04 18:00 | 48.82589 | -31.12048 | 39425 ft | 488 kts | 71° |
| 2026-05-04 18:00 | 48.84193 | -31.02042 | 39423 ft | 488 kts | 71° |
| 2026-05-04 18:01 | 48.85792 | -30.92006 | 39428 ft | 489 kts | 71° |
| 2026-05-04 18:01 | 48.87383 | -30.81961 | 39431 ft | 489 kts | 71° |
| 2026-05-04 18:02 | 48.89755 | -30.66866 | 39438 ft | 490 kts | 71° |
| 2026-05-04 18:02 | 48.91329 | -30.56773 | 39432 ft | 491 kts | 71° |
| 2026-05-04 18:03 | 48.92896 | -30.46662 | 39431 ft | 491 kts | 71° |
| 2026-05-04 18:03 | 48.94446 | -30.36594 | 39431 ft | 491 kts | 72° |
| 2026-05-04 18:04 | 48.95996 | -30.26472 | 39440 ft | 492 kts | 72° |
| 2026-05-04 18:05 | 48.98311 | -30.11227 | 39432 ft | 493 kts | 72° |
| 2026-05-04 18:05 | 48.99863 | -30.01076 | 39439 ft | 491 kts | 70° |
| 2026-05-04 18:06 | 49.03311 | -29.86518 | 39447 ft | 487 kts | 64° |
| 2026-05-04 18:06 | 49.05780 | -29.76908 | 39439 ft | 487 kts | 64° |
| 2026-05-04 18:07 | 49.08218 | -29.67260 | 39439 ft | 488 kts | 64° |
| 2026-05-04 18:07 | 49.10633 | -29.57567 | 39440 ft | 488 kts | 65° |
| 2026-05-04 18:08 | 49.13015 | -29.47933 | 39448 ft | 489 kts | 65° |
| 2026-05-04 18:08 | 49.15410 | -29.38209 | 39431 ft | 489 kts | 65° |
| 2026-05-04 18:09 | 49.20181 | -29.18720 | 39437 ft | 489 kts | 65° |
| 2026-05-04 18:10 | 49.22552 | -29.08975 | 39446 ft | 489 kts | 66° |
| 2026-05-04 18:10 | 49.24920 | -28.99200 | 39436 ft | 490 kts | 66° |
| 2026-05-04 18:11 | 49.27277 | -28.89422 | 39434 ft | 490 kts | 66° |
| 2026-05-04 18:11 | 49.29627 | -28.79632 | 39435 ft | 490 kts | 66° |
| 2026-05-04 18:12 | 49.31968 | -28.69835 | 39448 ft | 490 kts | 66° |
| 2026-05-04 18:12 | 49.34303 | -28.60019 | 39437 ft | 490 kts | 66° |
| 2026-05-04 18:13 | 49.36615 | -28.50257 | 39437 ft | 490 kts | 66° |
| 2026-05-04 18:14 | 49.40091 | -28.35497 | 39434 ft | 490 kts | 66° |
| 2026-05-04 18:14 | 49.42396 | -28.25652 | 39434 ft | 490 kts | 66° |
| 2026-05-04 18:15 | 49.46988 | -28.05906 | 39433 ft | 490 kts | 67° |
| 2026-05-04 18:16 | 49.49254 | -27.96093 | 39434 ft | 490 kts | 67° |
| 2026-05-04 18:16 | 49.51529 | -27.86201 | 39440 ft | 491 kts | 67° |
| 2026-05-04 18:17 | 49.54925 | -27.71339 | 39429 ft | 491 kts | 67° |
| 2026-05-04 18:18 | 49.58304 | -27.56453 | 39437 ft | 491 kts | 68° |
| 2026-05-04 18:18 | 49.60548 | -27.46506 | 39430 ft | 491 kts | 68° |
| 2026-05-04 18:19 | 49.63894 | -27.31589 | 39438 ft | 491 kts | 68° |
| 2026-05-04 18:19 | 49.66117 | -27.21617 | 39432 ft | 491 kts | 68° |
| 2026-05-04 18:20 | 49.68327 | -27.11657 | 39433 ft | 491 kts | 68° |
| 2026-05-04 18:20 | 49.70531 | -27.01680 | 39438 ft | 491 kts | 68° |
| 2026-05-04 18:21 | 49.72726 | -26.91691 | 39430 ft | 491 kts | 69° |
| 2026-05-04 18:21 | 49.74913 | -26.81693 | 39433 ft | 491 kts | 69° |
| 2026-05-04 18:22 | 49.77091 | -26.71688 | 39432 ft | 491 kts | 69° |
| 2026-05-04 18:22 | 49.79260 | -26.61677 | 39439 ft | 491 kts | 69° |
| 2026-05-04 18:23 | 49.81407 | -26.51715 | 39430 ft | 491 kts | 69° |
| 2026-05-04 18:23 | 49.83567 | -26.41647 | 39432 ft | 491 kts | 69° |
| 2026-05-04 18:24 | 49.85696 | -26.31670 | 39429 ft | 491 kts | 69° |
| 2026-05-04 18:24 | 49.87830 | -26.21624 | 39434 ft | 491 kts | 69° |
| 2026-05-04 18:25 | 49.89944 | -26.11624 | 39428 ft | 491 kts | 69° |
| 2026-05-04 18:25 | 49.92063 | -26.01547 | 39429 ft | 491 kts | 70° |
| 2026-05-04 18:26 | 49.94174 | -25.91460 | 39426 ft | 491 kts | 70° |
| 2026-05-04 18:26 | 49.96273 | -25.81378 | 39433 ft | 491 kts | 70° |
| 2026-05-04 18:27 | 49.98364 | -25.71286 | 39422 ft | 491 kts | 70° |
| 2026-05-04 18:27 | 50.00448 | -25.61174 | 39422 ft | 491 kts | 70° |
| 2026-05-04 18:28 | 50.02523 | -25.51056 | 39428 ft | 491 kts | 70° |
| 2026-05-04 18:28 | 50.04587 | -25.40939 | 39427 ft | 491 kts | 70° |
| 2026-05-04 18:29 | 50.06292 | -25.32542 | 39423 ft | 491 kts | 70° |
| 2026-05-04 18:29 | 50.08343 | -25.22395 | 39417 ft | 491 kts | 70° |
| 2026-05-04 18:30 | 50.11394 | -25.07200 | 39417 ft | 491 kts | 70° |
| 2026-05-04 18:31 | 50.13387 | -24.97214 | 39427 ft | 491 kts | 70° |
| 2026-05-04 18:31 | 50.15398 | -24.87078 | 39422 ft | 491 kts | 71° |
| 2026-05-04 18:32 | 50.17394 | -24.76973 | 39409 ft | 491 kts | 71° |
| 2026-05-04 18:32 | 50.19396 | -24.66780 | 39408 ft | 491 kts | 71° |
| 2026-05-04 18:33 | 50.21376 | -24.56647 | 39423 ft | 491 kts | 71° |
| 2026-05-04 18:33 | 50.23345 | -24.46515 | 39415 ft | 491 kts | 71° |
| 2026-05-04 18:34 | 50.25318 | -24.36308 | 39411 ft | 491 kts | 71° |
| 2026-05-04 18:34 | 50.27282 | -24.26096 | 39413 ft | 490 kts | 71° |
| 2026-05-04 18:35 | 50.29236 | -24.15877 | 39413 ft | 490 kts | 71° |
| 2026-05-04 18:35 | 50.31174 | -24.05688 | 39405 ft | 490 kts | 71° |
| 2026-05-04 18:36 | 50.33108 | -23.95464 | 39401 ft | 490 kts | 71° |
| 2026-05-04 18:36 | 50.35036 | -23.85221 | 39407 ft | 490 kts | 71° |
| 2026-05-04 18:37 | 50.36954 | -23.74968 | 39411 ft | 490 kts | 71° |
| 2026-05-04 18:37 | 50.38849 | -23.64785 | 39393 ft | 491 kts | 71° |
| 2026-05-04 18:38 | 50.40745 | -23.54543 | 39402 ft | 490 kts | 71° |
| 2026-05-04 18:38 | 50.42635 | -23.44271 | 39405 ft | 490 kts | 71° |
| 2026-05-04 18:39 | 50.44498 | -23.34094 | 39392 ft | 490 kts | 72° |
| 2026-05-04 18:39 | 50.46364 | -23.23840 | 39396 ft | 490 kts | 72° |
| 2026-05-04 18:40 | 50.48227 | -23.13549 | 39396 ft | 490 kts | 72° |
| 2026-05-04 18:40 | 50.50079 | -23.03254 | 39390 ft | 490 kts | 72° |
| 2026-05-04 18:41 | 50.51920 | -22.92968 | 39391 ft | 490 kts | 72° |
| 2026-05-04 18:41 | 50.53748 | -22.82694 | 39394 ft | 489 kts | 72° |
| 2026-05-04 18:42 | 50.55568 | -22.72407 | 39388 ft | 489 kts | 72° |
| 2026-05-04 18:42 | 50.57383 | -22.62088 | 39388 ft | 489 kts | 72° |
| 2026-05-04 18:43 | 50.59181 | -22.51807 | 39386 ft | 489 kts | 72° |
| 2026-05-04 18:43 | 50.60976 | -22.41479 | 39391 ft | 489 kts | 72° |
| 2026-05-04 18:44 | 50.62763 | -22.31142 | 39381 ft | 489 kts | 72° |
| 2026-05-04 18:44 | 50.64542 | -22.20786 | 39380 ft | 489 kts | 72° |
| 2026-05-04 18:45 | 50.66310 | -22.10437 | 39381 ft | 489 kts | 72° |
| 2026-05-04 18:45 | 50.68052 | -22.00175 | 39380 ft | 489 kts | 72° |
| 2026-05-04 18:46 | 50.69801 | -21.89813 | 39380 ft | 489 kts | 73° |
| 2026-05-04 18:46 | 50.71543 | -21.79432 | 39371 ft | 489 kts | 73° |
| 2026-05-04 18:47 | 50.73274 | -21.69049 | 39372 ft | 489 kts | 73° |
| 2026-05-04 18:47 | 50.74995 | -21.58669 | 39369 ft | 489 kts | 73° |
| 2026-05-04 18:48 | 50.76700 | -21.48318 | 39371 ft | 488 kts | 73° |
| 2026-05-04 18:48 | 50.78401 | -21.37930 | 39361 ft | 488 kts | 73° |
| 2026-05-04 18:49 | 50.80092 | -21.27540 | 39362 ft | 488 kts | 73° |
| 2026-05-04 18:49 | 50.81772 | -21.17153 | 39359 ft | 488 kts | 73° |
| 2026-05-04 18:50 | 50.83443 | -21.06754 | 39363 ft | 487 kts | 73° |
| 2026-05-04 18:50 | 50.85102 | -20.96370 | 39359 ft | 487 kts | 74° |
| 2026-05-04 18:51 | 50.86744 | -20.86019 | 39355 ft | 486 kts | 74° |
| 2026-05-04 18:51 | 50.88382 | -20.75634 | 39355 ft | 486 kts | 74° |
| 2026-05-04 18:52 | 50.90009 | -20.65257 | 39356 ft | 486 kts | 74° |
| 2026-05-04 18:52 | 50.91627 | -20.54865 | 39347 ft | 485 kts | 74° |
| 2026-05-04 18:53 | 50.93235 | -20.44473 | 39344 ft | 485 kts | 74° |
| 2026-05-04 18:53 | 50.94821 | -20.34160 | 39345 ft | 485 kts | 74° |
| 2026-05-04 18:54 | 50.96410 | -20.23767 | 39345 ft | 485 kts | 74° |
| 2026-05-04 18:54 | 50.97988 | -20.13372 | 39349 ft | 485 kts | 75° |
| 2026-05-04 18:55 | 50.99540 | -20.02959 | 39341 ft | 485 kts | 77° |
| 2026-05-04 18:55 | 51.00364 | -19.86943 | 39329 ft | 487 kts | 87° |
| 2026-05-04 18:56 | 51.00516 | -19.76193 | 39335 ft | 487 kts | 87° |
| 2026-05-04 18:56 | 51.00686 | -19.65446 | 39334 ft | 487 kts | 86° |
| 2026-05-04 18:57 | 51.00872 | -19.54703 | 39328 ft | 487 kts | 86° |
| 2026-05-04 18:57 | 51.01057 | -19.43954 | 39329 ft | 487 kts | 86° |
| 2026-05-04 18:58 | 51.01231 | -19.33281 | 39330 ft | 487 kts | 87° |
| 2026-05-04 18:58 | 51.01395 | -19.22513 | 39329 ft | 487 kts | 87° |
| 2026-05-04 18:59 | 51.01548 | -19.11789 | 39323 ft | 488 kts | 87° |
| 2026-05-04 18:59 | 51.01692 | -19.01023 | 39317 ft | 488 kts | 87° |
| 2026-05-04 19:00 | 51.01825 | -18.90248 | 39319 ft | 488 kts | 87° |
| 2026-05-04 19:00 | 51.01949 | -18.79475 | 39312 ft | 488 kts | 87° |
| 2026-05-04 19:01 | 51.02064 | -18.68696 | 39316 ft | 488 kts | 87° |
| 2026-05-04 19:01 | 51.02168 | -18.57918 | 39307 ft | 488 kts | 87° |
| 2026-05-04 19:02 | 51.02262 | -18.47225 | 39306 ft | 487 kts | 87° |
| 2026-05-04 19:02 | 51.02346 | -18.36460 | 39304 ft | 487 kts | 88° |
| 2026-05-04 19:03 | 51.02421 | -18.25710 | 39301 ft | 486 kts | 88° |
| 2026-05-04 19:03 | 51.02485 | -18.14969 | 39300 ft | 486 kts | 88° |
| 2026-05-04 19:04 | 51.02540 | -18.04236 | 39292 ft | 486 kts | 88° |
| 2026-05-04 19:04 | 51.02585 | -17.93506 | 39293 ft | 486 kts | 88° |
| 2026-05-04 19:05 | 51.02620 | -17.82772 | 39290 ft | 485 kts | 88° |
| 2026-05-04 19:05 | 51.02645 | -17.72053 | 39303 ft | 485 kts | 88° |
| 2026-05-04 19:06 | 51.02660 | -17.61338 | 39286 ft | 485 kts | 88° |
| 2026-05-04 19:06 | 51.02666 | -17.50760 | 39289 ft | 485 kts | 88° |
| 2026-05-04 19:07 | 51.02661 | -17.40124 | 39273 ft | 485 kts | 88° |
| 2026-05-04 19:07 | 51.02648 | -17.29423 | 39283 ft | 484 kts | 88° |
| 2026-05-04 19:08 | 51.02624 | -17.18732 | 39287 ft | 484 kts | 88° |
| 2026-05-04 19:08 | 51.02591 | -17.08043 | 39274 ft | 484 kts | 88° |
| 2026-05-04 19:09 | 51.02548 | -16.97357 | 39277 ft | 483 kts | 89° |
| 2026-05-04 19:09 | 51.02495 | -16.86745 | 39273 ft | 482 kts | 88° |
| 2026-05-04 19:10 | 51.02433 | -16.76091 | 39276 ft | 482 kts | 89° |
| 2026-05-04 19:10 | 51.02361 | -16.65451 | 39269 ft | 481 kts | 89° |
| 2026-05-04 19:11 | 51.02280 | -16.54828 | 39262 ft | 481 kts | 89° |
| 2026-05-04 19:11 | 51.02189 | -16.44216 | 39257 ft | 480 kts | 89° |
| 2026-05-04 19:12 | 51.02035 | -16.28317 | 39260 ft | 480 kts | 89° |
| 2026-05-04 19:13 | 51.01921 | -16.17789 | 39260 ft | 480 kts | 89° |
| 2026-05-04 19:13 | 51.01796 | -16.07187 | 39256 ft | 480 kts | 89° |
| 2026-05-04 19:14 | 51.01685 | -15.98303 | 39252 ft | 480 kts | 89° |
| 2026-05-04 19:14 | 51.01519 | -15.85982 | 39251 ft | 480 kts | 90° |
| 2026-05-04 19:15 | 51.01365 | -15.75371 | 39260 ft | 480 kts | 90° |
| 2026-05-04 19:15 | 51.01203 | -15.64764 | 39243 ft | 481 kts | 90° |
| 2026-05-04 19:16 | 51.01030 | -15.54153 | 39239 ft | 481 kts | 89° |
| 2026-05-04 19:16 | 51.00848 | -15.43536 | 39248 ft | 480 kts | 89° |
| 2026-05-04 19:17 | 51.00689 | -15.34718 | 39228 ft | 480 kts | 90° |
| 2026-05-04 19:17 | 51.00457 | -15.22409 | 39241 ft | 479 kts | 90° |
| 2026-05-04 19:18 | 51.00247 | -15.11856 | 39239 ft | 478 kts | 90° |
| 2026-05-04 19:18 | 51.00029 | -15.01315 | 39234 ft | 477 kts | 90° |
| 2026-05-04 19:19 | 50.99939 | -14.92582 | 39228 ft | 475 kts | 88° |
| 2026-05-04 19:19 | 51.00012 | -14.82096 | 39221 ft | 474 kts | 88° |
| 2026-05-04 19:20 | 51.00078 | -14.71609 | 39224 ft | 474 kts | 87° |
| 2026-05-04 19:20 | 51.00103 | -14.61139 | 39221 ft | 474 kts | 87° |
| 2026-05-04 19:21 | 51.00107 | -14.50670 | 39225 ft | 474 kts | 88° |
| 2026-05-04 19:21 | 51.00101 | -14.40263 | 39217 ft | 475 kts | 88° |
| 2026-05-04 19:22 | 51.00088 | -14.29752 | 39236 ft | 475 kts | 88° |
| 2026-05-04 19:22 | 51.00065 | -14.19320 | 39225 ft | 475 kts | 88° |
| 2026-05-04 19:23 | 51.00035 | -14.08821 | 39213 ft | 475 kts | 88° |
| 2026-05-04 19:23 | 51.00270 | -13.98365 | 39216 ft | 473 kts | 81° |
| 2026-05-04 19:24 | 51.01545 | -13.88156 | 39214 ft | 470 kts | 75° |
| 2026-05-04 19:24 | 51.02990 | -13.78022 | 39224 ft | 470 kts | 75° |
| 2026-05-04 19:25 | 51.04406 | -13.67884 | 39210 ft | 470 kts | 76° |
| 2026-05-04 19:25 | 51.05788 | -13.57757 | 39209 ft | 469 kts | 76° |
| 2026-05-04 19:26 | 51.07151 | -13.47628 | 39206 ft | 468 kts | 76° |
| 2026-05-04 19:26 | 51.08492 | -13.37587 | 39204 ft | 467 kts | 76° |
| 2026-05-04 19:27 | 51.09831 | -13.27489 | 39209 ft | 466 kts | 76° |
| 2026-05-04 19:27 | 51.11159 | -13.17419 | 39196 ft | 465 kts | 76° |
| 2026-05-04 19:28 | 51.12475 | -13.07360 | 39199 ft | 464 kts | 76° |
| 2026-05-04 19:28 | 51.13783 | -12.97301 | 39196 ft | 463 kts | 76° |
| 2026-05-04 19:29 | 51.15078 | -12.87265 | 39208 ft | 463 kts | 76° |
| 2026-05-04 19:29 | 51.16366 | -12.77213 | 39195 ft | 463 kts | 77° |
| 2026-05-04 19:30 | 51.17643 | -12.67171 | 39189 ft | 462 kts | 77° |
| 2026-05-04 19:30 | 51.18912 | -12.57115 | 39190 ft | 462 kts | 77° |
| 2026-05-04 19:31 | 51.20171 | -12.47068 | 39189 ft | 462 kts | 77° |
| 2026-05-04 19:31 | 51.21414 | -12.37080 | 39190 ft | 462 kts | 77° |
| 2026-05-04 19:32 | 51.22665 | -12.26947 | 39185 ft | 462 kts | 77° |
| 2026-05-04 19:32 | 51.23880 | -12.17031 | 39180 ft | 462 kts | 77° |
| 2026-05-04 19:33 | 51.25104 | -12.06967 | 39176 ft | 462 kts | 77° |
| 2026-05-04 19:33 | 51.26320 | -11.96898 | 39190 ft | 462 kts | 77° |
| 2026-05-04 19:34 | 51.27524 | -11.86840 | 39177 ft | 461 kts | 77° |
| 2026-05-04 19:34 | 51.28721 | -11.76776 | 39176 ft | 461 kts | 77° |
| 2026-05-04 19:35 | 51.29907 | -11.66716 | 39171 ft | 461 kts | 77° |
| 2026-05-04 19:35 | 51.31086 | -11.56648 | 39175 ft | 460 kts | 77° |
| 2026-05-04 19:36 | 51.32253 | -11.46600 | 39175 ft | 460 kts | 78° |
| 2026-05-04 19:36 | 51.33413 | -11.36525 | 39168 ft | 459 kts | 78° |
| 2026-05-04 19:37 | 51.34560 | -11.26488 | 39164 ft | 459 kts | 78° |
| 2026-05-04 19:37 | 51.35699 | -11.16446 | 39163 ft | 458 kts | 78° |
| 2026-05-04 19:38 | 51.36827 | -11.06414 | 39161 ft | 458 kts | 78° |
| 2026-05-04 19:38 | 51.37947 | -10.96375 | 39149 ft | 458 kts | 78° |
| 2026-05-04 19:39 | 51.39058 | -10.86338 | 39151 ft | 458 kts | 78° |
| 2026-05-04 19:39 | 51.40159 | -10.76298 | 39145 ft | 458 kts | 78° |
| 2026-05-04 19:40 | 51.41253 | -10.66252 | 39144 ft | 458 kts | 78° |
| 2026-05-04 19:40 | 51.42339 | -10.56188 | 39140 ft | 459 kts | 79° |
| 2026-05-04 19:41 | 51.43418 | -10.46111 | 39137 ft | 460 kts | 78° |
| 2026-05-04 19:41 | 51.44490 | -10.36008 | 39134 ft | 460 kts | 79° |
| 2026-05-04 19:42 | 51.45549 | -10.25947 | 39133 ft | 461 kts | 79° |
| 2026-05-04 19:42 | 51.46605 | -10.15816 | 39130 ft | 461 kts | 79° |
| 2026-05-04 19:43 | 51.47653 | -10.05674 | 39133 ft | 461 kts | 79° |
| 2026-05-04 19:43 | 51.48694 | -9.95523 | 39122 ft | 461 kts | 79° |
| 2026-05-04 19:44 | 51.49721 | -9.85413 | 39121 ft | 460 kts | 79° |
| 2026-05-04 19:44 | 51.50740 | -9.75284 | 39124 ft | 460 kts | 79° |
| 2026-05-04 19:45 | 51.51752 | -9.65142 | 39125 ft | 460 kts | 80° |
| 2026-05-04 19:45 | 51.52757 | -9.54981 | 39115 ft | 461 kts | 80° |
| 2026-05-04 19:46 | 51.53754 | -9.44802 | 39107 ft | 462 kts | 80° |
| 2026-05-04 19:46 | 51.54744 | -9.34597 | 39109 ft | 462 kts | 80° |
| 2026-05-04 19:47 | 51.55722 | -9.24424 | 39113 ft | 463 kts | 80° |
| 2026-05-04 19:47 | 51.56697 | -9.14178 | 39116 ft | 464 kts | 80° |
| 2026-05-04 19:48 | 51.57665 | -9.03913 | 39106 ft | 465 kts | 80° |
| 2026-05-04 19:48 | 51.58619 | -8.93706 | 39102 ft | 465 kts | 81° |
| 2026-05-04 19:49 | 51.59566 | -8.83469 | 39103 ft | 466 kts | 81° |
| 2026-05-04 19:49 | 51.60514 | -8.73117 | 39103 ft | 466 kts | 81° |
| 2026-05-04 19:50 | 51.61451 | -8.62778 | 39105 ft | 467 kts | 81° |
| 2026-05-04 19:50 | 51.62379 | -8.52432 | 39105 ft | 467 kts | 81° |
| 2026-05-04 19:51 | 51.63298 | -8.42084 | 39096 ft | 467 kts | 81° |
| 2026-05-04 19:51 | 51.64208 | -8.31737 | 39100 ft | 467 kts | 81° |
| 2026-05-04 19:52 | 51.65109 | -8.21385 | 39104 ft | 467 kts | 81° |
| 2026-05-04 19:52 | 51.65999 | -8.11052 | 39099 ft | 467 kts | 81° |
| 2026-05-04 19:53 | 51.66882 | -8.00679 | 39098 ft | 468 kts | 82° |
| 2026-05-04 19:53 | 51.67745 | -7.90433 | 39093 ft | 468 kts | 82° |
| 2026-05-04 19:54 | 51.68612 | -7.80030 | 39090 ft | 468 kts | 82° |
| 2026-05-04 19:54 | 51.69470 | -7.69630 | 39092 ft | 468 kts | 82° |
| 2026-05-04 19:55 | 51.70319 | -7.59216 | 39095 ft | 469 kts | 82° |
| 2026-05-04 19:55 | 51.71155 | -7.48848 | 39086 ft | 469 kts | 82° |
| 2026-05-04 19:56 | 51.71988 | -7.38397 | 39089 ft | 469 kts | 82° |
| 2026-05-04 19:56 | 51.72810 | -7.27958 | 39094 ft | 470 kts | 82° |
| 2026-05-04 19:57 | 51.73611 | -7.17676 | 39085 ft | 469 kts | 82° |
| 2026-05-04 19:57 | 51.74415 | -7.07230 | 39085 ft | 469 kts | 83° |
| 2026-05-04 19:58 | 51.75207 | -6.96828 | 39086 ft | 468 kts | 83° |
| 2026-05-04 19:58 | 51.75989 | -6.86427 | 39082 ft | 468 kts | 83° |
| 2026-05-04 19:59 | 51.76762 | -6.76018 | 39081 ft | 467 kts | 83° |
| 2026-05-04 19:59 | 51.77521 | -6.65681 | 39076 ft | 467 kts | 83° |
| 2026-05-04 20:00 | 51.77939 | -6.55345 | 39078 ft | 466 kts | 91° |
| 2026-05-04 20:00 | 51.77254 | -6.44952 | 39090 ft | 466 kts | 98° |
| 2026-05-04 20:01 | 51.76272 | -6.34709 | 39081 ft | 466 kts | 98° |
| 2026-05-04 20:01 | 51.75284 | -6.24356 | 39073 ft | 467 kts | 98° |
| 2026-05-04 20:02 | 51.74311 | -6.13995 | 39066 ft | 467 kts | 98° |
| 2026-05-04 20:02 | 51.73343 | -6.03688 | 39073 ft | 468 kts | 98° |
| 2026-05-04 20:03 | 51.72361 | -5.93316 | 39070 ft | 468 kts | 98° |
| 2026-05-04 20:03 | 51.71369 | -5.82943 | 39063 ft | 468 kts | 98° |
| 2026-05-04 20:04 | 51.70365 | -5.72565 | 39061 ft | 468 kts | 98° |
| 2026-05-04 20:04 | 51.69365 | -5.62314 | 39065 ft | 469 kts | 98° |
| 2026-05-04 20:05 | 51.68515 | -5.53685 | 39061 ft | 469 kts | 99° |
| 2026-05-04 20:05 | 51.67491 | -5.43369 | 39058 ft | 470 kts | 98° |
| 2026-05-04 20:06 | 51.66475 | -5.33236 | 39053 ft | 470 kts | 99° |
| 2026-05-04 20:06 | 51.65460 | -5.23193 | 39048 ft | 471 kts | 99° |
| 2026-05-04 20:07 | 51.64401 | -5.12813 | 39047 ft | 471 kts | 99° |
| 2026-05-04 20:07 | 51.63334 | -5.02447 | 39049 ft | 471 kts | 99° |
| 2026-05-04 20:08 | 51.62254 | -4.92046 | 39047 ft | 471 kts | 99° |
| 2026-05-04 20:08 | 51.61164 | -4.81647 | 39038 ft | 471 kts | 99° |
| 2026-05-04 20:09 | 51.60065 | -4.71249 | 39047 ft | 471 kts | 99° |
| 2026-05-04 20:09 | 51.58955 | -4.60847 | 39041 ft | 472 kts | 99° |
| 2026-05-04 20:10 | 51.57836 | -4.50451 | 39036 ft | 473 kts | 99° |
| 2026-05-04 20:10 | 51.56706 | -4.40036 | 39039 ft | 473 kts | 99° |
| 2026-05-04 20:11 | 51.55575 | -4.29707 | 39038 ft | 473 kts | 100° |
| 2026-05-04 20:11 | 51.54434 | -4.19367 | 39035 ft | 473 kts | 100° |
| 2026-05-04 20:12 | 51.53278 | -4.08989 | 39031 ft | 474 kts | 100° |
| 2026-05-04 20:12 | 51.52112 | -3.98592 | 39035 ft | 474 kts | 100° |
| 2026-05-04 20:13 | 51.50937 | -3.88200 | 39034 ft | 474 kts | 101° |
| 2026-05-04 20:13 | 51.50337 | -3.82970 | 38695 ft | 479 kts | 101° |
| 2026-05-04 20:13 | 51.49725 | -3.77751 | 37909 ft | 479 kts | 101° |
| 2026-05-04 20:13 | 51.49109 | -3.72530 | 37193 ft | 475 kts | 101° |
| 2026-05-04 20:14 | 51.48497 | -3.67349 | 36599 ft | 469 kts | 101° |
| 2026-05-04 20:14 | 51.47911 | -3.62230 | 36115 ft | 462 kts | 99° |
| 2026-05-04 20:14 | 51.47541 | -3.57156 | 35610 ft | 456 kts | 96° |
| 2026-05-04 20:14 | 51.47258 | -3.52124 | 35112 ft | 450 kts | 95° |
| 2026-05-04 20:15 | 51.46986 | -3.47145 | 34605 ft | 445 kts | 95° |
| 2026-05-04 20:15 | 51.46714 | -3.42231 | 34125 ft | 441 kts | 96° |
| 2026-05-04 20:15 | 51.46437 | -3.37359 | 33598 ft | 436 kts | 96° |
| 2026-05-04 20:15 | 51.46158 | -3.32552 | 33074 ft | 431 kts | 97° |
| 2026-05-04 20:16 | 51.45876 | -3.27801 | 32600 ft | 425 kts | 97° |
| 2026-05-04 20:16 | 51.45594 | -3.23109 | 32127 ft | 420 kts | 97° |
| 2026-05-04 20:16 | 51.45313 | -3.18480 | 31660 ft | 415 kts | 98° |
| 2026-05-04 20:16 | 51.45033 | -3.13906 | 31210 ft | 410 kts | 98° |
| 2026-05-04 20:17 | 51.44754 | -3.09369 | 30755 ft | 406 kts | 98° |
| 2026-05-04 20:17 | 51.44477 | -3.04893 | 30309 ft | 402 kts | 99° |
| 2026-05-04 20:17 | 51.44204 | -3.00517 | 29818 ft | 398 kts | 99° |
| 2026-05-04 20:17 | 51.43928 | -2.96123 | 29301 ft | 395 kts | 99° |
| 2026-05-04 20:18 | 51.43653 | -2.91770 | 28809 ft | 391 kts | 99° |
| 2026-05-04 20:18 | 51.43379 | -2.87452 | 28322 ft | 387 kts | 99° |
| 2026-05-04 20:18 | 51.43105 | -2.83179 | 27861 ft | 384 kts | 99° |
| 2026-05-04 20:18 | 51.42832 | -2.78931 | 27400 ft | 382 kts | 99° |
| 2026-05-04 20:19 | 51.42559 | -2.74707 | 26935 ft | 380 kts | 99° |
| 2026-05-04 20:19 | 51.42286 | -2.70496 | 26470 ft | 379 kts | 99° |
| 2026-05-04 20:19 | 51.42012 | -2.66307 | 26022 ft | 378 kts | 99° |
| 2026-05-04 20:19 | 51.41738 | -2.62132 | 25583 ft | 377 kts | 99° |
| 2026-05-04 20:20 | 51.41463 | -2.57956 | 25144 ft | 376 kts | 99° |
| 2026-05-04 20:20 | 51.41188 | -2.53791 | 24699 ft | 376 kts | 99° |
| 2026-05-04 20:20 | 51.40911 | -2.49645 | 24264 ft | 375 kts | 99° |
| 2026-05-04 20:20 | 51.40631 | -2.45478 | 23826 ft | 375 kts | 99° |
| 2026-05-04 20:21 | 51.40350 | -2.41319 | 23341 ft | 375 kts | 99° |
| 2026-05-04 20:21 | 51.40067 | -2.37173 | 22847 ft | 375 kts | 98° |
| 2026-05-04 20:21 | 51.39500 | -2.28900 | 21963 ft | 372 kts | 98° |
| 2026-05-04 20:22 | 51.39217 | -2.24786 | 21527 ft | 371 kts | 98° |
| 2026-05-04 20:22 | 51.38932 | -2.20686 | 21084 ft | 370 kts | 98° |
| 2026-05-04 20:22 | 51.38647 | -2.16595 | 20656 ft | 369 kts | 98° |
| 2026-05-04 20:22 | 51.38358 | -2.12461 | 20228 ft | 369 kts | 98° |
| 2026-05-04 20:23 | 51.38073 | -2.08389 | 19805 ft | 368 kts | 98° |
| 2026-05-04 20:23 | 51.37789 | -2.04367 | 19369 ft | 368 kts | 98° |
| 2026-05-04 20:23 | 51.37500 | -2.00302 | 18940 ft | 368 kts | 98° |
| 2026-05-04 20:23 | 51.37209 | -1.96239 | 18506 ft | 368 kts | 98° |
| 2026-05-04 20:24 | 51.36916 | -1.92175 | 18034 ft | 368 kts | 97° |
| 2026-05-04 20:24 | 51.36622 | -1.88111 | 17541 ft | 367 kts | 97° |
| 2026-05-04 20:24 | 51.36329 | -1.84071 | 17087 ft | 366 kts | 97° |
| 2026-05-04 20:24 | 51.36040 | -1.80099 | 16632 ft | 350 kts | 97° |
| 2026-05-04 20:25 | 51.35763 | -1.76316 | 16217 ft | 339 kts | 97° |
| 2026-05-04 20:25 | 51.35488 | -1.72575 | 15814 ft | 339 kts | 97° |
| 2026-05-04 20:25 | 51.35211 | -1.68830 | 15395 ft | 339 kts | 97° |
| 2026-05-04 20:25 | 51.34937 | -1.65124 | 15161 ft | 331 kts | 97° |
| 2026-05-04 20:26 | 51.34665 | -1.61469 | 14647 ft | 332 kts | 97° |
| 2026-05-04 20:26 | 51.34389 | -1.57794 | 14178 ft | 332 kts | 97° |
| 2026-05-04 20:26 | 51.34116 | -1.54152 | 13852 ft | 327 kts | 97° |
| 2026-05-04 20:26 | 51.33850 | -1.50582 | 13614 ft | 318 kts | 97° |
| 2026-05-04 20:27 | 51.33591 | -1.47113 | 13408 ft | 309 kts | 97° |
| 2026-05-04 20:27 | 51.33338 | -1.43739 | 13162 ft | 302 kts | 97° |
| 2026-05-04 20:27 | 51.33089 | -1.40426 | 12813 ft | 299 kts | 97° |
| 2026-05-04 20:27 | 51.32839 | -1.37120 | 12414 ft | 298 kts | 97° |
| 2026-05-04 20:28 | 51.32591 | -1.33847 | 12074 ft | 296 kts | 97° |
| 2026-05-04 20:28 | 51.32344 | -1.30608 | 11766 ft | 292 kts | 97° |
| 2026-05-04 20:28 | 51.32100 | -1.27396 | 11386 ft | 291 kts | 97° |
| 2026-05-04 20:28 | 51.31854 | -1.24183 | 10993 ft | 291 kts | 97° |
| 2026-05-04 20:29 | 51.31607 | -1.20987 | 10654 ft | 289 kts | 98° |
| 2026-05-04 20:29 | 51.31388 | -1.17815 | 10278 ft | 283 kts | 92° |
| 2026-05-04 20:29 | 51.31753 | -1.14702 | 9741 ft | 289 kts | 66° |
| 2026-05-04 20:29 | 51.32749 | -1.11939 | 9355 ft | 287 kts | 58° |
| 2026-05-04 20:30 | 51.33870 | -1.09293 | 8951 ft | 287 kts | 56° |
| 2026-05-04 20:30 | 51.34987 | -1.06660 | 8566 ft | 282 kts | 56° |
| 2026-05-04 20:30 | 51.36064 | -1.04126 | 8148 ft | 270 kts | 56° |
| 2026-05-04 20:30 | 51.37096 | -1.01694 | 7764 ft | 259 kts | 56° |
| 2026-05-04 20:31 | 51.38090 | -0.99353 | 7367 ft | 250 kts | 55° |
| 2026-05-04 20:31 | 51.39069 | -0.97044 | 7013 ft | 253 kts | 55° |
| 2026-05-04 20:31 | 51.40060 | -0.94699 | 6663 ft | 255 kts | 56° |
| 2026-05-04 20:31 | 51.41054 | -0.92346 | 6302 ft | 251 kts | 56° |
| 2026-05-04 20:32 | 51.42014 | -0.90063 | 5843 ft | 243 kts | 55° |
| 2026-05-04 20:32 | 51.42935 | -0.87857 | 5408 ft | 235 kts | 55° |
| 2026-05-04 20:32 | 51.43825 | -0.85718 | 4975 ft | 228 kts | 56° |
| 2026-05-04 20:32 | 51.44688 | -0.83634 | 4548 ft | 224 kts | 55° |
| 2026-05-04 20:33 | 51.45553 | -0.81541 | 4192 ft | 227 kts | 56° |
| 2026-05-04 20:33 | 51.46432 | -0.79428 | 3895 ft | 227 kts | 56° |
| 2026-05-04 20:33 | 51.47249 | -0.77294 | 3603 ft | 221 kts | 68° |
| 2026-05-04 20:33 | 51.47516 | -0.74939 | 3381 ft | 211 kts | 83° |
| 2026-05-04 20:34 | 51.47630 | -0.72596 | 3084 ft | 210 kts | 86° |
| 2026-05-04 20:34 | 51.47670 | -0.70327 | 2799 ft | 196 kts | 88° |
| 2026-05-04 20:34 | 51.47678 | -0.68262 | 2547 ft | 172 kts | 88° |
| 2026-05-04 20:34 | 51.47683 | -0.66437 | 2339 ft | 157 kts | 87° |
| 2026-05-04 20:35 | 51.47690 | -0.64731 | 2112 ft | 149 kts | 87° |
| 2026-05-04 20:35 | 51.47695 | -0.63140 | 1916 ft | 137 kts | 87° |
| 2026-05-04 20:35 | 51.47700 | -0.61635 | 1769 ft | 133 kts | 87° |
| 2026-05-04 20:35 | 51.47702 | -0.60162 | 1586 ft | 133 kts | 87° |
| 2026-05-04 20:36 | 51.47699 | -0.58679 | 1404 ft | 133 kts | 85° |
| 2026-05-04 20:36 | 51.47708 | -0.57190 | 1214 ft | 134 kts | 86° |
| 2026-05-04 20:36 | 51.47714 | -0.55688 | 1050 ft | 135 kts | 86° |
| 2026-05-04 20:36 | 51.47723 | -0.54175 | 831 ft | 137 kts | 85° |
| 2026-05-04 20:37 | 51.47734 | -0.52655 | 649 ft | 136 kts | 88° |
| 2026-05-04 20:37 | 51.47735 | -0.51144 | 439 ft | 135 kts | 85° |
| 2026-05-04 20:37 | 51.47745 | -0.49639 | 273 ft | 135 kts | 86° |
| 2026-05-04 20:37 | 51.47748 | -0.48120 | 109 ft | 131 kts | 85° |
| 2026-05-04 20:38 | 51.47757 | -0.46853 | 96 ft | 98 kts | 90° |
| 2026-05-04 20:38 | 51.47759 | -0.45934 | 92 ft | 64 kts | 90° |
| 2026-05-04 20:38 | 51.47761 | -0.45420 | 91 ft | 27 kts | 89° |
| 2026-05-04 20:38 | 51.47754 | -0.45243 | 94 ft | 14 kts | 110° |
| 2026-05-04 20:39 | 51.47675 | -0.45181 | 93 ft | 13 kts | 175° |
| 2026-05-04 20:39 | 51.47624 | -0.45176 | 94 ft | 6 kts | 178° |
| 2026-05-04 20:39 | 51.47606 | -0.45179 | 92 ft | 0 kts | 196° |
| 2026-05-04 20:41 | 51.47602 | -0.45185 | 92 ft | 3 kts | 218° |
| 2026-05-04 20:41 | 51.47599 | -0.45222 | 92 ft | 4 kts | 267° |
| 2026-05-04 20:41 | 51.47598 | -0.45266 | 93 ft | 4 kts | 268° |
| 2026-05-04 20:42 | 51.47597 | -0.45316 | 91 ft | 5 kts | 269° |
| 2026-05-04 20:42 | 51.47596 | -0.45376 | 93 ft | 6 kts | 269° |
| 2026-05-04 20:42 | 51.47596 | -0.45444 | 94 ft | 6 kts | 269° |
| 2026-05-04 20:42 | 51.47596 | -0.45519 | 94 ft | 7 kts | 270° |
| 2026-05-04 20:43 | 51.47596 | -0.45598 | 94 ft | 7 kts | 270° |
| 2026-05-04 20:43 | 51.47596 | -0.45681 | 94 ft | 8 kts | 270° |
| 2026-05-04 20:43 | 51.47596 | -0.45771 | 94 ft | 8 kts | 269° |
| 2026-05-04 20:43 | 51.47595 | -0.45869 | 94 ft | 9 kts | 270° |
| 2026-05-04 20:44 | 51.47595 | -0.46024 | 94 ft | 16 kts | 270° |
| 2026-05-04 20:44 | 51.47594 | -0.46207 | 94 ft | 16 kts | 269° |
| 2026-05-04 20:44 | 51.47593 | -0.46389 | 94 ft | 16 kts | 270° |
| 2026-05-04 20:44 | 51.47593 | -0.46572 | 94 ft | 16 kts | 270° |
| 2026-05-04 20:45 | 51.47592 | -0.46754 | 91 ft | 16 kts | 269° |
| 2026-05-04 20:45 | 51.47583 | -0.46936 | 94 ft | 16 kts | 268° |
| 2026-05-04 20:45 | 51.47583 | -0.47119 | 94 ft | 16 kts | 270° |
| 2026-05-04 20:45 | 51.47583 | -0.47302 | 94 ft | 16 kts | 270° |
| 2026-05-04 20:46 | 51.47582 | -0.47484 | 94 ft | 16 kts | 269° |
| 2026-05-04 20:46 | 51.47579 | -0.47667 | 94 ft | 16 kts | 269° |
| 2026-05-04 20:46 | 51.47576 | -0.47841 | 93 ft | 14 kts | 249° |
| 2026-05-04 20:46 | 51.47484 | -0.47874 | 94 ft | 14 kts | 179° |
| 2026-05-04 20:47 | 51.47384 | -0.47873 | 94 ft | 14 kts | 180° |
| 2026-05-04 20:47 | 51.47318 | -0.47872 | 94 ft | 14 kts | 180° |
| 2026-05-04 20:47 | 51.47217 | -0.47871 | 91 ft | 14 kts | 180° |
| 2026-05-04 20:47 | 51.47117 | -0.47870 | 91 ft | 14 kts | 180° |
| 2026-05-04 20:48 | 51.47023 | -0.47870 | 91 ft | 9 kts | 180° |
| 2026-05-04 20:48 | 51.46997 | -0.47874 | 91 ft | 3 kts | 200° |
| 2026-05-04 20:48 | 51.46985 | -0.47905 | 94 ft | 4 kts | 249° |
| 2026-05-04 20:48 | 51.46981 | -0.47948 | 93 ft | 4 kts | 266° |
| 2026-05-04 20:49 | 51.46980 | -0.47998 | 94 ft | 4 kts | 269° |
| 2026-05-04 20:49 | 51.46980 | -0.48012 | 94 ft | 1 kts | 269° |
| 2026-05-04 20:49 | 51.46980 | -0.48023 | 94 ft | 0 kts | 269° |